sensor_id;sensor_type;location;lat;lon;timestamp;P1;durP1;ratioP1;P2;durP2;ratioP2
54143;SDS011;40050;47.324;18.792;2023-03-11T00:01:22;2.66;;;0.59;;
54143;SDS011;40050;47.324;18.792;2023-03-11T00:03:24;1.23;;;0.50;;
54143;SDS011;40050;47.324;18.792;2023-03-11T00:05:29;6.55;;;0.79;;
54143;SDS011;40050;47.324;18.792;2023-03-11T00:07:27;3.14;;;0.50;;
54143;SDS011;40050;47.324;18.792;2023-03-11T00:09:28;2.76;;;0.69;;
54143;SDS011;40050;47.324;18.792;2023-03-11T00:11:29;1.62;;;0.50;;
54143;SDS011;40050;47.324;18.792;2023-03-11T00:13:30;0.96;;;0.50;;
54143;SDS011;40050;47.324;18.792;2023-03-11T00:15:32;1.34;;;0.50;;
54143;SDS011;40050;47.324;18.792;2023-03-11T00:17:32;1.05;;;0.40;;
54143;SDS011;40050;47.324;18.792;2023-03-11T00:19:33;1.92;;;0.50;;
54143;SDS011;40050;47.324;18.792;2023-03-11T00:21:34;1.15;;;0.40;;
54143;SDS011;40050;47.324;18.792;2023-03-11T00:23:36;2.02;;;0.60;;
54143;SDS011;40050;47.324;18.792;2023-03-11T00:25:38;2.41;;;0.40;;
54143;SDS011;40050;47.324;18.792;2023-03-11T00:27:38;2.22;;;0.40;;
54143;SDS011;40050;47.324;18.792;2023-03-11T00:29:39;1.54;;;0.60;;
54143;SDS011;40050;47.324;18.792;2023-03-11T00:31:42;0.77;;;0.40;;
54143;SDS011;40050;47.324;18.792;2023-03-11T00:33:45;1.73;;;0.40;;
54143;SDS011;40050;47.324;18.792;2023-03-11T00:35:48;1.54;;;0.70;;
54143;SDS011;40050;47.324;18.792;2023-03-11T00:37:51;0.96;;;0.40;;
54143;SDS011;40050;47.324;18.792;2023-03-11T00:39:49;1.64;;;0.60;;
54143;SDS011;40050;47.324;18.792;2023-03-11T00:41:50;1.16;;;0.60;;
54143;SDS011;40050;47.324;18.792;2023-03-11T00:43:51;1.16;;;0.50;;
54143;SDS011;40050;47.324;18.792;2023-03-11T00:45:52;1.74;;;0.50;;
54143;SDS011;40050;47.324;18.792;2023-03-11T00:47:53;2.41;;;0.60;;
54143;SDS011;40050;47.324;18.792;2023-03-11T00:49:54;1.83;;;0.60;;
54143;SDS011;40050;47.324;18.792;2023-03-11T00:51:55;3.38;;;0.60;;
54143;SDS011;40050;47.324;18.792;2023-03-11T00:53:56;1.45;;;0.60;;
54143;SDS011;40050;47.324;18.792;2023-03-11T00:55:58;2.32;;;0.70;;
54143;SDS011;40050;47.324;18.792;2023-03-11T00:58:02;2.32;;;0.50;;
54143;SDS011;40050;47.324;18.792;2023-03-11T01:00:00;1.16;;;0.50;;
54143;SDS011;40050;47.324;18.792;2023-03-11T01:02:01;2.13;;;0.60;;
54143;SDS011;40050;47.324;18.792;2023-03-11T01:04:02;1.55;;;0.50;;
54143;SDS011;40050;47.324;18.792;2023-03-11T01:06:06;1.26;;;0.70;;
54143;SDS011;40050;47.324;18.792;2023-03-11T01:08:05;2.22;;;0.70;;
54143;SDS011;40050;47.324;18.792;2023-03-11T01:10:06;1.26;;;0.60;;
54143;SDS011;40050;47.324;18.792;2023-03-11T01:12:07;2.23;;;0.40;;
54143;SDS011;40050;47.324;18.792;2023-03-11T01:14:08;3.30;;;0.80;;
54143;SDS011;40050;47.324;18.792;2023-03-11T01:16:09;2.23;;;0.50;;
54143;SDS011;40050;47.324;18.792;2023-03-11T01:18:10;2.03;;;0.50;;
54143;SDS011;40050;47.324;18.792;2023-03-11T01:20:11;1.94;;;0.80;;
54143;SDS011;40050;47.324;18.792;2023-03-11T01:22:12;1.75;;;0.60;;
54143;SDS011;40050;47.324;18.792;2023-03-11T01:24:13;2.52;;;0.80;;
54143;SDS011;40050;47.324;18.792;2023-03-11T01:26:14;1.45;;;0.60;;
54143;SDS011;40050;47.324;18.792;2023-03-11T01:28:15;1.26;;;0.70;;
54143;SDS011;40050;47.324;18.792;2023-03-11T01:30:17;1.65;;;0.70;;
54143;SDS011;40050;47.324;18.792;2023-03-11T01:32:17;3.21;;;0.70;;
54143;SDS011;40050;47.324;18.792;2023-03-11T01:34:18;2.62;;;0.60;;
54143;SDS011;40050;47.324;18.792;2023-03-11T01:36:19;2.33;;;0.70;;
54143;SDS011;40050;47.324;18.792;2023-03-11T01:38:20;1.55;;;0.70;;
54143;SDS011;40050;47.324;18.792;2023-03-11T01:40:35;1.94;;;0.50;;
54143;SDS011;40050;47.324;18.792;2023-03-11T01:42:22;3.21;;;0.60;;
54143;SDS011;40050;47.324;18.792;2023-03-11T01:44:24;1.65;;;0.60;;
54143;SDS011;40050;47.324;18.792;2023-03-11T01:48:39;2.62;;;0.70;;
54143;SDS011;40050;47.324;18.792;2023-03-11T01:50:45;2.04;;;0.60;;
54143;SDS011;40050;47.324;18.792;2023-03-11T01:52:42;1.85;;;0.60;;
54143;SDS011;40050;47.324;18.792;2023-03-11T01:54:45;2.33;;;0.70;;
54143;SDS011;40050;47.324;18.792;2023-03-11T01:56:46;2.23;;;0.80;;
54143;SDS011;40050;47.324;18.792;2023-03-11T01:58:49;2.62;;;0.70;;
54143;SDS011;40050;47.324;18.792;2023-03-11T02:00:50;2.62;;;0.70;;
54143;SDS011;40050;47.324;18.792;2023-03-11T02:02:57;2.53;;;0.90;;
54143;SDS011;40050;47.324;18.792;2023-03-11T02:04:58;2.23;;;0.60;;
54143;SDS011;40050;47.324;18.792;2023-03-11T02:07:02;4.66;;;0.80;;
54143;SDS011;40050;47.324;18.792;2023-03-11T02:09:03;1.94;;;0.70;;
54143;SDS011;40050;47.324;18.792;2023-03-11T02:11:04;2.62;;;0.80;;
54143;SDS011;40050;47.324;18.792;2023-03-11T02:13:06;3.69;;;0.70;;
54143;SDS011;40050;47.324;18.792;2023-03-11T02:15:10;2.82;;;0.80;;
54143;SDS011;40050;47.324;18.792;2023-03-11T02:17:11;3.01;;;0.80;;
54143;SDS011;40050;47.324;18.792;2023-03-11T02:19:19;2.23;;;0.80;;
54143;SDS011;40050;47.324;18.792;2023-03-11T02:21:23;6.80;;;0.90;;
54143;SDS011;40050;47.324;18.792;2023-03-11T02:23:20;2.14;;;0.80;;
54143;SDS011;40050;47.324;18.792;2023-03-11T02:25:39;2.63;;;0.70;;
54143;SDS011;40050;47.324;18.792;2023-03-11T02:27:40;1.85;;;0.80;;
54143;SDS011;40050;47.324;18.792;2023-03-11T02:29:42;2.33;;;0.80;;
54143;SDS011;40050;47.324;18.792;2023-03-11T02:31:43;4.48;;;0.80;;
54143;SDS011;40050;47.324;18.792;2023-03-11T02:33:45;1.85;;;0.60;;
54143;SDS011;40050;47.324;18.792;2023-03-11T02:35:46;5.08;;;0.70;;
54143;SDS011;40050;47.324;18.792;2023-03-11T02:37:48;3.22;;;0.60;;
54143;SDS011;40050;47.324;18.792;2023-03-11T02:40:19;2.15;;;0.70;;
54143;SDS011;40050;47.324;18.792;2023-03-11T02:42:11;2.64;;;0.60;;
54143;SDS011;40050;47.324;18.792;2023-03-11T02:44:10;2.15;;;0.80;;
54143;SDS011;40050;47.324;18.792;2023-03-11T02:46:11;4.21;;;0.80;;
54143;SDS011;40050;47.324;18.792;2023-03-11T02:48:12;2.55;;;0.70;;
54143;SDS011;40050;47.324;18.792;2023-03-11T02:50:14;2.06;;;0.60;;
54143;SDS011;40050;47.324;18.792;2023-03-11T02:52:15;1.67;;;0.60;;
54143;SDS011;40050;47.324;18.792;2023-03-11T02:54:17;3.33;;;0.70;;
54143;SDS011;40050;47.324;18.792;2023-03-11T02:56:18;2.55;;;0.80;;
54143;SDS011;40050;47.324;18.792;2023-03-11T02:58:19;2.35;;;0.60;;
54143;SDS011;40050;47.324;18.792;2023-03-11T03:00:20;1.47;;;0.40;;
54143;SDS011;40050;47.324;18.792;2023-03-11T03:02:21;2.65;;;0.70;;
54143;SDS011;40050;47.324;18.792;2023-03-11T03:04:22;4.72;;;0.70;;
54143;SDS011;40050;47.324;18.792;2023-03-11T03:06:23;1.77;;;0.50;;
54143;SDS011;40050;47.324;18.792;2023-03-11T03:08:24;2.85;;;0.60;;
54143;SDS011;40050;47.324;18.792;2023-03-11T03:10:25;2.95;;;0.70;;
54143;SDS011;40050;47.324;18.792;2023-03-11T03:12:26;1.97;;;0.50;;
54143;SDS011;40050;47.324;18.792;2023-03-11T03:14:27;1.28;;;0.50;;
54143;SDS011;40050;47.324;18.792;2023-03-11T03:16:28;3.95;;;0.50;;
54143;SDS011;40050;47.324;18.792;2023-03-11T03:18:29;2.07;;;0.40;;
54143;SDS011;40050;47.324;18.792;2023-03-11T03:20:30;2.17;;;0.70;;
54143;SDS011;40050;47.324;18.792;2023-03-11T03:22:31;2.47;;;0.50;;
54143;SDS011;40050;47.324;18.792;2023-03-11T03:24:32;0.99;;;0.40;;
54143;SDS011;40050;47.324;18.792;2023-03-11T03:26:34;2.77;;;0.50;;
54143;SDS011;40050;47.324;18.792;2023-03-11T03:28:35;2.77;;;0.60;;
54143;SDS011;40050;47.324;18.792;2023-03-11T03:30:38;1.19;;;0.40;;
54143;SDS011;40050;47.324;18.792;2023-03-11T03:32:38;2.08;;;0.50;;
54143;SDS011;40050;47.324;18.792;2023-03-11T03:34:41;1.48;;;0.40;;
54143;SDS011;40050;47.324;18.792;2023-03-11T03:36:44;0.79;;;0.40;;
54143;SDS011;40050;47.324;18.792;2023-03-11T03:38:45;2.97;;;0.70;;
54143;SDS011;40050;47.324;18.792;2023-03-11T03:40:46;2.28;;;0.50;;
54143;SDS011;40050;47.324;18.792;2023-03-11T03:42:47;1.48;;;0.50;;
54143;SDS011;40050;47.324;18.792;2023-03-11T03:44:47;4.85;;;0.60;;
54143;SDS011;40050;47.324;18.792;2023-03-11T03:46:48;1.49;;;0.50;;
54143;SDS011;40050;47.324;18.792;2023-03-11T03:48:49;1.19;;;0.50;;
54143;SDS011;40050;47.324;18.792;2023-03-11T03:50:51;1.09;;;0.50;;
54143;SDS011;40050;47.324;18.792;2023-03-11T03:52:52;1.09;;;0.60;;
54143;SDS011;40050;47.324;18.792;2023-03-11T03:54:56;1.29;;;0.50;;
54143;SDS011;40050;47.324;18.792;2023-03-11T03:56:53;0.69;;;0.50;;
54143;SDS011;40050;47.324;18.792;2023-03-11T03:58:54;0.69;;;0.60;;
54143;SDS011;40050;47.324;18.792;2023-03-11T04:00:55;2.08;;;0.80;;
54143;SDS011;40050;47.324;18.792;2023-03-11T04:02:56;1.39;;;0.60;;
54143;SDS011;40050;47.324;18.792;2023-03-11T04:04:57;1.29;;;0.70;;
54143;SDS011;40050;47.324;18.792;2023-03-11T04:06:58;2.77;;;0.50;;
54143;SDS011;40050;47.324;18.792;2023-03-11T04:08:59;2.08;;;0.60;;
54143;SDS011;40050;47.324;18.792;2023-03-11T04:11:00;3.27;;;0.50;;
54143;SDS011;40050;47.324;18.792;2023-03-11T04:13:01;0.99;;;0.50;;
54143;SDS011;40050;47.324;18.792;2023-03-11T04:15:02;1.69;;;0.50;;
54143;SDS011;40050;47.324;18.792;2023-03-11T04:18:24;6.35;;;0.60;;
54143;SDS011;40050;47.324;18.792;2023-03-11T04:20:25;3.08;;;0.60;;
54143;SDS011;40050;47.324;18.792;2023-03-11T04:22:26;4.57;;;0.70;;
54143;SDS011;40050;47.324;18.792;2023-03-11T04:24:27;4.27;;;0.80;;
54143;SDS011;40050;47.324;18.792;2023-03-11T04:26:28;6.95;;;0.80;;
54143;SDS011;40050;47.324;18.792;2023-03-11T04:28:28;4.07;;;0.50;;
54143;SDS011;40050;47.324;18.792;2023-03-11T04:30:29;1.59;;;0.60;;
54143;SDS011;40050;47.324;18.792;2023-03-11T04:34:31;4.76;;;0.70;;
54143;SDS011;40050;47.324;18.792;2023-03-11T04:36:36;7.95;;;0.90;;
54143;SDS011;40050;47.324;18.792;2023-03-11T04:38:37;14.30;;;1.70;;
54143;SDS011;40050;47.324;18.792;2023-03-11T04:40:38;3.48;;;0.70;;
54143;SDS011;40050;47.324;18.792;2023-03-11T04:42:39;8.54;;;0.70;;
54143;SDS011;40050;47.324;18.792;2023-03-11T04:44:40;11.62;;;0.90;;
54143;SDS011;40050;47.324;18.792;2023-03-11T04:46:56;9.04;;;0.80;;
54143;SDS011;40050;47.324;18.792;2023-03-11T04:49:02;8.65;;;0.80;;
54143;SDS011;40050;47.324;18.792;2023-03-11T04:51:03;8.94;;;0.70;;
54143;SDS011;40050;47.324;18.792;2023-03-11T04:53:04;11.23;;;1.00;;
54143;SDS011;40050;47.324;18.792;2023-03-11T04:55:05;9.24;;;0.80;;
54143;SDS011;40050;47.324;18.792;2023-03-11T04:57:06;8.35;;;0.80;;
54143;SDS011;40050;47.324;18.792;2023-03-11T04:59:07;14.72;;;0.80;;
54143;SDS011;40050;47.324;18.792;2023-03-11T05:01:08;10.74;;;0.90;;
54143;SDS011;40050;47.324;18.792;2023-03-11T05:03:09;8.55;;;1.10;;
54143;SDS011;40050;47.324;18.792;2023-03-11T05:05:10;10.06;;;0.90;;
54143;SDS011;40050;47.324;18.792;2023-03-11T05:07:11;5.78;;;0.70;;
54143;SDS011;40050;47.324;18.792;2023-03-11T05:09:12;12.55;;;1.10;;
54143;SDS011;40050;47.324;18.792;2023-03-11T05:11:13;10.65;;;1.00;;
54143;SDS011;40050;47.324;18.792;2023-03-11T05:13:14;15.63;;;1.00;;
54143;SDS011;40050;47.324;18.792;2023-03-11T05:15:15;9.66;;;1.30;;
54143;SDS011;40050;47.324;18.792;2023-03-11T05:17:16;7.07;;;1.50;;
54143;SDS011;40050;47.324;18.792;2023-03-11T05:19:17;8.36;;;1.10;;
54143;SDS011;40050;47.324;18.792;2023-03-11T05:21:18;10.85;;;1.10;;
54143;SDS011;40050;47.324;18.792;2023-03-11T05:23:19;12.54;;;1.90;;
54143;SDS011;40050;47.324;18.792;2023-03-11T05:25:20;18.21;;;1.10;;
54143;SDS011;40050;47.324;18.792;2023-03-11T05:27:21;12.63;;;1.30;;
54143;SDS011;40050;47.324;18.792;2023-03-11T05:29:22;6.36;;;0.80;;
54143;SDS011;40050;47.324;18.792;2023-03-11T05:31:23;7.36;;;0.70;;
54143;SDS011;40050;47.324;18.792;2023-03-11T05:33:23;2.59;;;0.90;;
54143;SDS011;40050;47.324;18.792;2023-03-11T05:35:24;6.07;;;1.00;;
54143;SDS011;40050;47.324;18.792;2023-03-11T05:37:26;5.97;;;0.90;;
54143;SDS011;40050;47.324;18.792;2023-03-11T05:39:27;3.08;;;0.70;;
54143;SDS011;40050;47.324;18.792;2023-03-11T05:41:28;2.59;;;0.70;;
54143;SDS011;40050;47.324;18.792;2023-03-11T05:43:28;6.46;;;0.80;;
54143;SDS011;40050;47.324;18.792;2023-03-11T05:45:31;5.17;;;0.90;;
54143;SDS011;40050;47.324;18.792;2023-03-11T05:47:32;2.09;;;0.60;;
54143;SDS011;40050;47.324;18.792;2023-03-11T05:49:33;5.76;;;0.70;;
54143;SDS011;40050;47.324;18.792;2023-03-11T05:51:38;2.49;;;0.80;;
54143;SDS011;40050;47.324;18.792;2023-03-11T05:53:42;2.88;;;0.90;;
54143;SDS011;40050;47.324;18.792;2023-03-11T05:55:40;0.99;;;0.60;;
54143;SDS011;40050;47.324;18.792;2023-03-11T05:57:41;1.79;;;0.70;;
54143;SDS011;40050;47.324;18.792;2023-03-11T05:59:45;2.39;;;0.70;;
54143;SDS011;40050;47.324;18.792;2023-03-11T06:01:47;1.69;;;0.70;;
54143;SDS011;40050;47.324;18.792;2023-03-11T06:03:48;3.77;;;0.70;;
54143;SDS011;40050;47.324;18.792;2023-03-11T06:05:49;5.17;;;0.80;;
54143;SDS011;40050;47.324;18.792;2023-03-11T06:07:50;3.78;;;0.80;;
54143;SDS011;40050;47.324;18.792;2023-03-11T06:10:02;3.68;;;0.90;;
54143;SDS011;40050;47.324;18.792;2023-03-11T06:12:02;3.97;;;0.80;;
54143;SDS011;40050;47.324;18.792;2023-03-11T06:14:03;2.09;;;0.60;;
54143;SDS011;40050;47.324;18.792;2023-03-11T06:16:04;5.67;;;0.80;;
54143;SDS011;40050;47.324;18.792;2023-03-11T06:18:05;6.96;;;0.70;;
54143;SDS011;40050;47.324;18.792;2023-03-11T06:22:07;6.46;;;1.10;;
54143;SDS011;40050;47.324;18.792;2023-03-11T06:24:08;5.27;;;1.00;;
54143;SDS011;40050;47.324;18.792;2023-03-11T06:26:09;5.96;;;0.80;;
54143;SDS011;40050;47.324;18.792;2023-03-11T06:30:11;9.74;;;1.00;;
54143;SDS011;40050;47.324;18.792;2023-03-11T06:32:11;1.79;;;0.60;;
54143;SDS011;40050;47.324;18.792;2023-03-11T06:34:13;3.28;;;1.00;;
54143;SDS011;40050;47.324;18.792;2023-03-11T06:36:15;2.98;;;0.80;;
54143;SDS011;40050;47.324;18.792;2023-03-11T06:38:15;6.66;;;0.70;;
54143;SDS011;40050;47.324;18.792;2023-03-11T06:40:16;5.17;;;0.90;;
54143;SDS011;40050;47.324;18.792;2023-03-11T06:42:17;1.49;;;0.60;;
54143;SDS011;40050;47.324;18.792;2023-03-11T06:44:18;5.67;;;0.80;;
54143;SDS011;40050;47.324;18.792;2023-03-11T06:46:20;6.76;;;1.30;;
54143;SDS011;40050;47.324;18.792;2023-03-11T06:48:20;5.67;;;0.60;;
54143;SDS011;40050;47.324;18.792;2023-03-11T06:50:21;12.23;;;1.00;;
54143;SDS011;40050;47.324;18.792;2023-03-11T06:52:22;10.44;;;0.80;;
54143;SDS011;40050;47.324;18.792;2023-03-11T06:54:23;13.33;;;1.00;;
54143;SDS011;40050;47.324;18.792;2023-03-11T06:56:28;4.58;;;0.70;;
54143;SDS011;40050;47.324;18.792;2023-03-11T06:58:32;8.46;;;1.10;;
54143;SDS011;40050;47.324;18.792;2023-03-11T07:00:30;7.26;;;0.90;;
54143;SDS011;40050;47.324;18.792;2023-03-11T07:02:31;10.94;;;0.80;;
54143;SDS011;40050;47.324;18.792;2023-03-11T07:04:33;9.75;;;0.60;;
54143;SDS011;40050;47.324;18.792;2023-03-11T07:06:34;8.46;;;0.80;;
54143;SDS011;40050;47.324;18.792;2023-03-11T07:08:35;3.68;;;0.90;;
54143;SDS011;40050;47.324;18.792;2023-03-11T07:10:36;2.29;;;0.90;;
54143;SDS011;40050;47.324;18.792;2023-03-11T07:12:37;1.69;;;0.50;;
54143;SDS011;40050;47.324;18.792;2023-03-11T07:14:38;10.06;;;1.10;;
54143;SDS011;40050;47.324;18.792;2023-03-11T07:16:47;2.89;;;0.40;;
54143;SDS011;40050;47.324;18.792;2023-03-11T07:18:50;5.08;;;0.50;;
54143;SDS011;40050;47.324;18.792;2023-03-11T07:20:49;2.99;;;0.50;;
54143;SDS011;40050;47.324;18.792;2023-03-11T07:22:50;3.58;;;0.60;;
54143;SDS011;40050;47.324;18.792;2023-03-11T07:24:51;2.49;;;0.60;;
54143;SDS011;40050;47.324;18.792;2023-03-11T07:26:52;4.18;;;0.70;;
54143;SDS011;40050;47.324;18.792;2023-03-11T07:28:54;6.07;;;1.10;;
54143;SDS011;40050;47.324;18.792;2023-03-11T07:30:54;6.87;;;0.70;;
54143;SDS011;40050;47.324;18.792;2023-03-11T07:32:55;10.46;;;0.80;;
54143;SDS011;40050;47.324;18.792;2023-03-11T07:34:56;5.97;;;0.60;;
54143;SDS011;40050;47.324;18.792;2023-03-11T07:36:57;7.96;;;1.00;;
54143;SDS011;40050;47.324;18.792;2023-03-11T07:39:00;5.28;;;1.00;;
54143;SDS011;40050;47.324;18.792;2023-03-11T07:40:59;2.89;;;0.80;;
54143;SDS011;40050;47.324;18.792;2023-03-11T07:43:00;5.67;;;0.60;;
54143;SDS011;40050;47.324;18.792;2023-03-11T07:45:01;4.38;;;0.90;;
54143;SDS011;40050;47.324;18.792;2023-03-11T07:47:03;1.89;;;0.90;;
54143;SDS011;40050;47.324;18.792;2023-03-11T07:49:03;4.48;;;0.90;;
54143;SDS011;40050;47.324;18.792;2023-03-11T07:51:05;1.69;;;0.70;;
54143;SDS011;40050;47.324;18.792;2023-03-11T07:53:05;5.08;;;0.90;;
54143;SDS011;40050;47.324;18.792;2023-03-11T07:55:06;1.69;;;0.60;;
54143;SDS011;40050;47.324;18.792;2023-03-11T07:57:07;3.68;;;0.60;;
54143;SDS011;40050;47.324;18.792;2023-03-11T07:59:08;3.48;;;0.70;;
54143;SDS011;40050;47.324;18.792;2023-03-11T08:01:16;3.78;;;0.60;;
54143;SDS011;40050;47.324;18.792;2023-03-11T08:03:10;5.77;;;0.70;;
54143;SDS011;40050;47.324;18.792;2023-03-11T08:05:11;3.58;;;0.50;;
54143;SDS011;40050;47.324;18.792;2023-03-11T08:07:13;2.49;;;1.00;;
54143;SDS011;40050;47.324;18.792;2023-03-11T08:09:14;1.39;;;0.60;;
54143;SDS011;40050;47.324;18.792;2023-03-11T08:11:16;1.19;;;0.60;;
54143;SDS011;40050;47.324;18.792;2023-03-11T08:13:16;5.18;;;0.80;;
54143;SDS011;40050;47.324;18.792;2023-03-11T08:15:18;9.16;;;1.00;;
54143;SDS011;40050;47.324;18.792;2023-03-11T08:17:18;2.39;;;0.70;;
54143;SDS011;40050;47.324;18.792;2023-03-11T08:19:22;5.37;;;0.80;;
54143;SDS011;40050;47.324;18.792;2023-03-11T08:21:30;3.68;;;0.70;;
54143;SDS011;40050;47.324;18.792;2023-03-11T08:23:30;2.79;;;0.60;;
54143;SDS011;40050;47.324;18.792;2023-03-11T08:25:31;2.49;;;0.60;;
54143;SDS011;40050;47.324;18.792;2023-03-11T08:27:31;7.37;;;0.60;;
54143;SDS011;40050;47.324;18.792;2023-03-11T08:29:32;5.58;;;1.00;;
54143;SDS011;40050;47.324;18.792;2023-03-11T08:31:41;1.89;;;0.70;;
54143;SDS011;40050;47.324;18.792;2023-03-11T08:33:43;1.59;;;0.60;;
54143;SDS011;40050;47.324;18.792;2023-03-11T08:35:43;1.59;;;0.50;;
54143;SDS011;40050;47.324;18.792;2023-03-11T08:37:44;2.29;;;0.80;;
54143;SDS011;40050;47.324;18.792;2023-03-11T08:39:45;1.69;;;0.70;;
54143;SDS011;40050;47.324;18.792;2023-03-11T08:41:46;0.70;;;0.50;;
54143;SDS011;40050;47.324;18.792;2023-03-11T08:43:47;1.69;;;0.70;;
54143;SDS011;40050;47.324;18.792;2023-03-11T08:45:48;1.69;;;0.60;;
54143;SDS011;40050;47.324;18.792;2023-03-11T08:47:49;2.69;;;0.50;;
54143;SDS011;40050;47.324;18.792;2023-03-11T08:49:50;1.30;;;0.60;;
54143;SDS011;40050;47.324;18.792;2023-03-11T08:51:51;1.60;;;0.50;;
54143;SDS011;40050;47.324;18.792;2023-03-11T08:53:57;1.89;;;0.80;;
54143;SDS011;40050;47.324;18.792;2023-03-11T08:55:58;3.49;;;0.70;;
54143;SDS011;40050;47.324;18.792;2023-03-11T08:57:59;0.80;;;0.50;;
54143;SDS011;40050;47.324;18.792;2023-03-11T09:00:01;2.99;;;0.70;;
54143;SDS011;40050;47.324;18.792;2023-03-11T09:02:05;2.09;;;0.60;;
54143;SDS011;40050;47.324;18.792;2023-03-11T09:04:03;1.20;;;0.70;;
54143;SDS011;40050;47.324;18.792;2023-03-11T09:06:06;1.10;;;0.70;;
54143;SDS011;40050;47.324;18.792;2023-03-11T09:08:12;1.99;;;0.90;;
54143;SDS011;40050;47.324;18.792;2023-03-11T09:10:13;2.19;;;0.50;;
54143;SDS011;40050;47.324;18.792;2023-03-11T09:12:14;2.39;;;0.70;;
54143;SDS011;40050;47.324;18.792;2023-03-11T09:14:15;1.89;;;0.80;;
54143;SDS011;40050;47.324;18.792;2023-03-11T09:16:17;1.89;;;0.80;;
54143;SDS011;40050;47.324;18.792;2023-03-11T09:18:23;1.70;;;0.70;;
54143;SDS011;40050;47.324;18.792;2023-03-11T09:20:24;2.19;;;0.70;;
54143;SDS011;40050;47.324;18.792;2023-03-11T09:22:25;3.49;;;0.80;;
54143;SDS011;40050;47.324;18.792;2023-03-11T09:24:32;1.89;;;0.80;;
54143;SDS011;40050;47.324;18.792;2023-03-11T09:26:31;2.59;;;0.50;;
54143;SDS011;40050;47.324;18.792;2023-03-11T09:28:34;0.90;;;0.60;;
54143;SDS011;40050;47.324;18.792;2023-03-11T09:30:41;3.29;;;0.70;;
54143;SDS011;40050;47.324;18.792;2023-03-11T09:32:43;0.60;;;0.50;;
54143;SDS011;40050;47.324;18.792;2023-03-11T09:34:44;1.60;;;0.80;;
54143;SDS011;40050;47.324;18.792;2023-03-11T09:36:46;0.80;;;0.50;;
54143;SDS011;40050;47.324;18.792;2023-03-11T09:38:47;1.60;;;0.60;;
54143;SDS011;40050;47.324;18.792;2023-03-11T09:45:30;3.39;;;0.80;;
54143;SDS011;40050;47.324;18.792;2023-03-11T09:47:42;2.69;;;0.70;;
54143;SDS011;40050;47.324;18.792;2023-03-11T09:50:12;3.89;;;1.00;;
54143;SDS011;40050;47.324;18.792;2023-03-11T09:52:14;5.59;;;1.20;;
54143;SDS011;40050;47.324;18.792;2023-03-11T09:54:10;4.79;;;0.70;;
54143;SDS011;40050;47.324;18.792;2023-03-11T09:56:20;4.79;;;0.70;;
54143;SDS011;40050;47.324;18.792;2023-03-11T10:00:24;2.19;;;0.80;;
54143;SDS011;40050;47.324;18.792;2023-03-11T10:02:25;1.40;;;0.60;;
54143;SDS011;40050;47.324;18.792;2023-03-11T10:04:34;2.69;;;0.50;;
54143;SDS011;40050;47.324;18.792;2023-03-11T10:06:37;4.09;;;0.70;;
54143;SDS011;40050;47.324;18.792;2023-03-11T10:09:05;4.99;;;0.60;;
54143;SDS011;40050;47.324;18.792;2023-03-11T10:10:53;4.59;;;1.00;;
54143;SDS011;40050;47.324;18.792;2023-03-11T10:13:14;1.50;;;0.70;;
54143;SDS011;40050;47.324;18.792;2023-03-11T10:18:01;4.59;;;0.80;;
54143;SDS011;40050;47.324;18.792;2023-03-11T10:20:19;3.09;;;0.60;;
54143;SDS011;40050;47.324;18.792;2023-03-11T10:23:01;4.29;;;1.00;;
54143;SDS011;40050;47.324;18.792;2023-03-11T10:27:12;3.29;;;0.70;;
54143;SDS011;40050;47.324;18.792;2023-03-11T10:29:38;10.67;;;1.20;;
54143;SDS011;40050;47.324;18.792;2023-03-11T10:31:35;11.08;;;0.70;;
54143;SDS011;40050;47.324;18.792;2023-03-11T10:35:57;3.19;;;0.60;;
54143;SDS011;40050;47.324;18.792;2023-03-11T10:42:27;6.29;;;0.90;;
54143;SDS011;40050;47.324;18.792;2023-03-11T10:44:34;4.59;;;0.80;;
54143;SDS011;40050;47.324;18.792;2023-03-11T10:46:34;3.39;;;1.10;;
54143;SDS011;40050;47.324;18.792;2023-03-11T10:51:00;3.09;;;0.60;;
54143;SDS011;40050;47.324;18.792;2023-03-11T10:53:22;2.79;;;0.60;;
54143;SDS011;40050;47.324;18.792;2023-03-11T10:55:57;48.99;;;5.00;;
54143;SDS011;40050;47.324;18.792;2023-03-11T10:58:12;2.39;;;0.50;;
54143;SDS011;40050;47.324;18.792;2023-03-11T11:00:27;2.00;;;0.60;;
54143;SDS011;40050;47.324;18.792;2023-03-11T11:02:52;3.89;;;0.70;;
54143;SDS011;40050;47.324;18.792;2023-03-11T11:07:08;34.23;;;2.10;;
54143;SDS011;40050;47.324;18.792;2023-03-11T11:09:19;26.54;;;2.00;;
54143;SDS011;40050;47.324;18.792;2023-03-11T11:11:22;30.52;;;2.20;;
54143;SDS011;40050;47.324;18.792;2023-03-11T11:13:15;64.04;;;4.20;;
54143;SDS011;40050;47.324;18.792;2023-03-11T11:15:49;4.39;;;0.80;;
54143;SDS011;40050;47.324;18.792;2023-03-11T11:17:35;5.09;;;0.60;;
54143;SDS011;40050;47.324;18.792;2023-03-11T11:19:45;19.77;;;2.30;;
54143;SDS011;40050;47.324;18.792;2023-03-11T11:22:11;11.78;;;1.10;;
54143;SDS011;40050;47.324;18.792;2023-03-11T11:24:16;5.99;;;0.90;;
54143;SDS011;40050;47.324;18.792;2023-03-11T11:26:31;9.98;;;1.30;;
54143;SDS011;40050;47.324;18.792;2023-03-11T11:28:35;57.88;;;4.40;;
54143;SDS011;40050;47.324;18.792;2023-03-11T11:30:55;5.39;;;1.00;;
54143;SDS011;40050;47.324;18.792;2023-03-11T11:32:55;2.40;;;0.80;;
54143;SDS011;40050;47.324;18.792;2023-03-11T11:35:04;4.49;;;0.80;;
54143;SDS011;40050;47.324;18.792;2023-03-11T11:37:08;1.90;;;0.90;;
54143;SDS011;40050;47.324;18.792;2023-03-11T11:41:12;1.40;;;0.80;;
54143;SDS011;40050;47.324;18.792;2023-03-11T11:43:28;4.19;;;0.90;;
54143;SDS011;40050;47.324;18.792;2023-03-11T11:45:38;2.30;;;1.00;;
54143;SDS011;40050;47.324;18.792;2023-03-11T11:47:43;4.59;;;0.90;;
54143;SDS011;40050;47.324;18.792;2023-03-11T11:50:15;3.29;;;0.80;;
54143;SDS011;40050;47.324;18.792;2023-03-11T11:52:23;7.59;;;1.00;;
54143;SDS011;40050;47.324;18.792;2023-03-11T11:54:51;6.29;;;1.20;;
54143;SDS011;40050;47.324;18.792;2023-03-11T11:56:48;3.49;;;0.80;;
54143;SDS011;40050;47.324;18.792;2023-03-11T11:58:43;2.30;;;0.80;;
54143;SDS011;40050;47.324;18.792;2023-03-11T12:03:16;1.40;;;0.60;;
54143;SDS011;40050;47.324;18.792;2023-03-11T12:05:39;4.39;;;0.80;;
54143;SDS011;40050;47.324;18.792;2023-03-11T12:08:07;3.39;;;0.80;;
54143;SDS011;40050;47.324;18.792;2023-03-11T12:10:39;54.18;;;5.60;;
54143;SDS011;40050;47.324;18.792;2023-03-11T12:15:28;49.39;;;3.60;;
54143;SDS011;40050;47.324;18.792;2023-03-11T12:17:25;109.98;;;7.80;;
54143;SDS011;40050;47.324;18.792;2023-03-11T12:19:47;115.67;;;8.60;;
54143;SDS011;40050;47.324;18.792;2023-03-11T12:22:16;36.73;;;2.50;;
54143;SDS011;40050;47.324;18.792;2023-03-11T12:26:35;21.66;;;2.30;;
54143;SDS011;40050;47.324;18.792;2023-03-11T12:28:59;16.76;;;1.50;;
54143;SDS011;40050;47.324;18.792;2023-03-11T12:31:00;5.59;;;0.70;;
54143;SDS011;40050;47.324;18.792;2023-03-11T12:33:30;4.09;;;1.00;;
54143;SDS011;40050;47.324;18.792;2023-03-11T12:35:23;1.10;;;0.70;;
54143;SDS011;40050;47.324;18.792;2023-03-11T12:37:35;8.08;;;1.00;;
54143;SDS011;40050;47.324;18.792;2023-03-11T12:44:51;82.62;;;5.10;;
54143;SDS011;40050;47.324;18.792;2023-03-11T12:46:23;157.89;;;9.70;;
54143;SDS011;40050;47.324;18.792;2023-03-11T12:48:49;141.22;;;10.20;;
54143;SDS011;40050;47.324;18.792;2023-03-11T12:53:50;122.06;;;8.20;;
54143;SDS011;40050;47.324;18.792;2023-03-11T12:56:20;48.20;;;3.20;;
54143;SDS011;40050;47.324;18.792;2023-03-11T12:58:29;48.30;;;3.80;;
54143;SDS011;40050;47.324;18.792;2023-03-11T13:01:10;3.89;;;1.00;;
54143;SDS011;40050;47.324;18.792;2023-03-11T13:03:26;5.49;;;1.00;;